Terminal Aerodrome Forecast
Issued by NWS Flagstaff, AZ

Home | Current Version | Previous Version | Text Only | Print | Product List | Glossary On
Versions: 1 2 3 4 5 6 7 8 9 10 11 12 13 14 15 16 17 18 19 20 21 22
000
FTUS45 KFGZ 180100 CCA
TAFFLG
TAF COR
KFLG 180105Z 1801/1824 23005KT P6SM FEW015 SCT020 BKN050
      TEMPO 1801/1803 6SM -SN BR BKN002 OVC013
     FM180300 VRB03KT 3SM BR OVC010
     FM181000 VRB04KT 3SM -SHSN BR OVC009
     FM181400 VRB05KT P6SM VCFG SCT009 BKN025
     FM181800 23008KT P6SM SCT025 BKN035=

USA.gov is the U.S. government's official web portal to all federal, state and local government web resources and services.